GCLP/LPA METAR and TAF weather

Enter ICAO airport designator
Station Type Date Time Source
GCLP METAR 2019/10/16 19:30 UTC NOAA

GCLP 161930Z 02011KT 9999 SCT025 22/17 Q1020 NOSIG


Station Type Date Time Source
GCLP Decoded METAR 2019/10/16 19:30 UTC NOAA

Gran Canaria - Canary Islands, Spain (GCLP) 27-56N 015-23W 47M
Oct 16, 2019 - 03:30 PM EDT / 2019.10.16 1930 UTC
Wind: from the NNE (020 degrees) at 13 MPH (11 KT):0
Visibility: greater than 7 mile(s):0
Sky conditions: partly cloudy
Temperature: 71 F (22 C)
Dew Point: 62 F (17 C)
Relative Humidity: 73%
Pressure (altimeter): 30.12 in. Hg (1020 hPa)
ob: GCLP 161930Z 02011KT 9999 SCT025 22/17 Q1020 NOSIG
cycle: 19

Station Type Date Time Source
GCLP TAF 2019/10/16 15:27 UTC NOAA

TAF GCLP 161400Z 1615/1715 02015KT 9999 BKN035 TX24/1714Z TN20/1705Z PROB30
TEMPO 1615/1618 RA

Example: see airport list